FKYS/NSI METAR and TAF weather

Enter ICAO airport designator
Station Type Date Time Source
FKYS METAR 2020/07/04 09:00 UTC NOAA

FKYS 040900Z 20005KT 9999 FEW003 BKN006 21/20 Q1018 BECMG BKN010


Station Type Date Time Source
FKYS Decoded METAR 2020/07/04 09:00 UTC NOAA

Yaounde, Cameroon (FKYS) 03-50N 011-31E 760M
Jul 04, 2020 - 05:00 AM EDT / 2020.07.04 0900 UTC
Wind: from the SSW (200 degrees) at 6 MPH (5 KT):0
Visibility: greater than 7 mile(s):0
Sky conditions: mostly cloudy
Temperature: 69 F (21 C)
Dew Point: 68 F (20 C)
Relative Humidity: 94%
Pressure (altimeter): 30.06 in. Hg (1018 hPa)
ob: FKYS 040900Z 20005KT 9999 FEW003 BKN006 21/20 Q1018 BECMG BKN010
cycle: 9

Station Type Date Time Source
FKYS TAF 2020/07/04 06:27 UTC NOAA

TAF FKYS 040500Z 0406/0506 26005KT 9999 BKN006 FEW020CB
BECMG 0408/0410 BKN016 PROB40 0415/0420 TS BKN013 FEW020CB
BECMG 0420/0422 BKN006

Example: see airport list